createdAt,value
2023-03-22T00:00:17.543Z,9.56
2023-03-22T00:02:46.672Z,9.54
2023-03-22T00:08:15.931Z,9.49
2023-03-22T00:10:44.085Z,9.44
2023-03-22T00:13:13.053Z,9.41
2023-03-22T00:15:44.841Z,9.39
2023-03-22T00:18:17.687Z,9.39
2023-03-22T00:20:50.009Z,9.37
2023-03-22T00:23:18.456Z,9.36
2023-03-22T00:25:48.999Z,9.32
2023-03-22T00:28:17.521Z,9.30
2023-03-22T00:30:56.795Z,9.28
2023-03-22T00:33:29.249Z,9.29
2023-03-22T00:35:59.146Z,9.28
2023-03-22T00:38:41.977Z,9.28
2023-03-22T00:41:11.234Z,9.26
2023-03-22T00:43:41.198Z,9.23
2023-03-22T00:46:10.480Z,9.18
2023-03-22T00:48:39.372Z,9.13
2023-03-22T00:51:08.325Z,9.09
2023-03-22T00:53:41.217Z,9.07
2023-03-22T00:56:14.410Z,9.05
2023-03-22T00:58:58.832Z,9.03
2023-03-22T01:01:32.479Z,8.99
2023-03-22T01:04:03.225Z,8.96
2023-03-22T01:06:33.461Z,8.94
2023-03-22T01:09:01.847Z,8.93
2023-03-22T01:11:33.874Z,8.93
2023-03-22T01:14:02.033Z,8.92
2023-03-22T01:16:30.406Z,8.90
2023-03-22T01:18:58.707Z,8.87
2023-03-22T01:21:26.981Z,8.83
2023-03-22T01:23:55.130Z,8.80
2023-03-22T01:26:23.292Z,8.78
2023-03-22T01:28:51.479Z,8.76
2023-03-22T01:31:19.995Z,8.74
2023-03-22T01:33:48.792Z,8.71
2023-03-22T01:36:16.992Z,8.70
2023-03-22T01:38:45.588Z,8.71
2023-03-22T01:41:14.403Z,8.71
2023-03-22T01:43:43.758Z,8.71
2023-03-22T01:46:12.876Z,8.69
2023-03-22T01:48:46.150Z,8.68
2023-03-22T01:51:25.424Z,8.68
2023-03-22T01:54:34.600Z,8.66
2023-03-22T01:57:03.960Z,8.64
2023-03-22T01:59:38.437Z,8.62
2023-03-22T02:02:19.286Z,8.59
2023-03-22T02:04:58.245Z,8.55
2023-03-22T02:07:31.869Z,8.52
2023-03-22T02:16:36.383Z,8.44
2023-03-22T02:19:10.521Z,8.39
2023-03-22T02:22:03.791Z,8.36
2023-03-22T02:24:56.343Z,8.34
2023-03-22T02:27:33.423Z,8.31
2023-03-22T02:30:50.142Z,8.28
2023-03-22T02:33:25.157Z,8.28
2023-03-22T02:36:33.272Z,8.28
2023-03-22T02:39:28.781Z,8.28
2023-03-22T02:42:15.317Z,8.27
2023-03-22T02:45:09.068Z,8.27
2023-03-22T02:48:00.772Z,8.24
2023-03-22T02:50:40.543Z,8.20
2023-03-22T02:53:21.230Z,8.18
2023-03-22T02:55:53.474Z,8.17
2023-03-22T02:58:25.262Z,8.16
2023-03-22T03:00:56.272Z,8.14
2023-03-22T03:03:29.388Z,8.11
2023-03-22T03:06:00.503Z,8.08
2023-03-22T03:08:28.738Z,8.05
2023-03-22T03:11:00.307Z,8.03
2023-03-22T03:13:29.941Z,8.00
2023-03-22T03:15:59.593Z,7.98
2023-03-22T03:18:52.890Z,7.97
2023-03-22T03:21:24.564Z,7.94
2023-03-22T03:23:58.960Z,7.91
2023-03-22T03:26:39.499Z,7.88
2023-03-22T03:29:28.442Z,7.89
2023-03-22T03:32:28.939Z,7.93
2023-03-22T03:34:59.949Z,7.94
2023-03-22T03:37:37.292Z,7.95
2023-03-22T03:40:27.619Z,7.93
2023-03-22T03:42:56.500Z,7.91
2023-03-22T03:45:25.559Z,7.89
2023-03-22T03:47:57.450Z,7.87
2023-03-22T03:50:26.008Z,7.88
2023-03-22T03:52:55.399Z,7.90
2023-03-22T03:55:23.964Z,7.92
2023-03-22T03:57:53.392Z,7.90
2023-03-22T04:00:21.623Z,7.88
2023-03-22T04:03:11.550Z,7.87
2023-03-22T04:06:00.237Z,7.86
2023-03-22T04:08:28.958Z,7.85
2023-03-22T04:11:00.890Z,7.84
2023-03-22T04:13:32.176Z,7.82
2023-03-22T04:16:02.448Z,7.82
2023-03-22T04:18:35.995Z,7.83
2023-03-22T04:21:06.931Z,7.83
2023-03-22T04:23:42.641Z,7.82
2023-03-22T04:26:11.625Z,7.82
2023-03-22T04:28:47.373Z,7.80
2023-03-22T04:31:15.886Z,7.78
2023-03-22T04:33:56.466Z,7.78
2023-03-22T04:36:49.908Z,7.80
2023-03-22T04:39:35.472Z,7.80
2023-03-22T04:42:22.185Z,7.79
2023-03-22T04:44:54.620Z,7.79
2023-03-22T04:47:22.944Z,7.79
2023-03-22T04:49:51.413Z,7.81
2023-03-22T04:52:19.840Z,7.84
2023-03-22T04:54:52.846Z,7.85
2023-03-22T04:57:21.366Z,7.87
2023-03-22T04:59:49.699Z,7.87
2023-03-22T05:02:19.143Z,7.88
2023-03-22T05:04:49.168Z,7.91
2023-03-22T05:07:39.366Z,7.91
2023-03-22T05:10:11.480Z,7.91
2023-03-22T05:12:40.552Z,7.90
2023-03-22T05:15:25.056Z,7.91
2023-03-22T05:17:56.398Z,7.91
2023-03-22T05:20:25.280Z,7.89
2023-03-22T05:23:31.073Z,7.88
2023-03-22T05:26:01.786Z,7.91
2023-03-22T05:28:32.051Z,7.92
2023-03-22T05:31:21.820Z,7.89
2023-03-22T05:34:04.243Z,7.87
2023-03-22T05:36:36.621Z,7.90
2023-03-22T05:39:34.122Z,7.93
2023-03-22T05:42:02.583Z,7.95
2023-03-22T05:44:32.046Z,7.99
2023-03-22T05:47:08.386Z,8.02
2023-03-22T05:50:07.680Z,8.04
2023-03-22T05:52:36.156Z,8.06
2023-03-22T05:55:25.637Z,8.08
2023-03-22T05:57:57.400Z,8.08
2023-03-22T06:00:32.222Z,8.07
2023-03-22T06:03:24.592Z,8.07
2023-03-22T06:06:15.992Z,8.08
2023-03-22T06:09:17.551Z,8.07
2023-03-22T06:11:51.391Z,8.10
2023-03-22T06:14:19.942Z,8.12
2023-03-22T06:17:09.200Z,8.11
2023-03-22T06:19:41.068Z,8.12
2023-03-22T06:22:10.035Z,8.15
2023-03-22T06:24:40.683Z,8.20
2023-03-22T06:27:09.722Z,8.25
2023-03-22T06:29:41.803Z,8.29
2023-03-22T06:32:10.251Z,8.34
2023-03-22T06:34:38.784Z,8.39
2023-03-22T06:37:07.075Z,8.42
2023-03-22T06:39:38.294Z,8.43
2023-03-22T06:42:06.701Z,8.44
2023-03-22T06:44:35.068Z,8.43
2023-03-22T06:47:16.249Z,8.42
2023-03-22T06:49:50.601Z,8.41
2023-03-22T06:52:25.306Z,8.37
2023-03-22T06:54:54.078Z,8.36
2023-03-22T06:57:33.021Z,8.39
2023-03-22T07:00:01.297Z,8.48
2023-03-22T07:02:29.837Z,8.54
2023-03-22T07:05:20.045Z,8.58
2023-03-22T07:07:48.273Z,8.61
2023-03-22T07:10:18.361Z,8.63
2023-03-22T07:12:48.376Z,8.64
2023-03-22T07:15:17.855Z,8.67
2023-03-22T07:17:57.626Z,8.71
2023-03-22T07:20:26.241Z,8.72
2023-03-22T07:22:54.694Z,8.75
2023-03-22T07:25:25.432Z,8.80
2023-03-22T07:28:03.534Z,8.84
2023-03-22T07:30:37.896Z,8.84
2023-03-22T07:33:06.955Z,8.89
2023-03-22T07:35:36.995Z,8.93
2023-03-22T07:38:06.711Z,9.00
2023-03-22T07:40:35.219Z,9.08
2023-03-22T07:43:04.066Z,9.13
2023-03-22T07:45:49.394Z,9.16
2023-03-22T07:48:54.038Z,9.21
2023-03-22T07:51:42.361Z,9.21
2023-03-22T07:54:14.020Z,9.23
2023-03-22T07:56:48.207Z,9.29
2023-03-22T07:59:17.659Z,9.36
2023-03-22T08:01:46.495Z,9.42
2023-03-22T08:04:42.210Z,9.40
2023-03-22T08:07:33.556Z,9.38
2023-03-22T08:10:06.271Z,9.34
2023-03-22T08:12:35.731Z,9.34
2023-03-22T08:15:34.348Z,9.36
2023-03-22T08:18:03.028Z,9.40
2023-03-22T08:20:35.351Z,9.47
2023-03-22T08:23:08.130Z,9.58
2023-03-22T08:25:54.974Z,9.64
2023-03-22T08:28:23.349Z,9.67
2023-03-22T08:30:51.692Z,9.67
2023-03-22T08:33:23.421Z,9.66
2023-03-22T08:36:08.170Z,9.69
2023-03-22T08:38:39.530Z,9.74
2023-03-22T08:41:09.268Z,9.79
2023-03-22T08:43:38.612Z,9.84
2023-03-22T08:46:08.013Z,9.89
2023-03-22T08:48:38.105Z,9.90
2023-03-22T08:51:20.736Z,9.91
2023-03-22T08:54:04.705Z,9.97
2023-03-22T08:56:59.414Z,10.05
2023-03-22T08:59:52.469Z,10.10
2023-03-22T09:02:24.822Z,10.15
2023-03-22T09:04:54.210Z,10.21
2023-03-22T09:07:27.493Z,10.27
2023-03-22T09:10:09.752Z,10.32
2023-03-22T09:12:39.950Z,10.39
2023-03-22T09:15:08.984Z,10.46
2023-03-22T09:17:38.239Z,10.52
2023-03-22T09:20:12.783Z,10.59
2023-03-22T09:22:43.092Z,10.67
2023-03-22T09:25:13.022Z,10.74
2023-03-22T09:27:43.650Z,10.79
2023-03-22T09:30:14.520Z,10.86
2023-03-22T09:32:43.509Z,10.93
2023-03-22T09:35:13.433Z,10.97
2023-03-22T09:37:54.771Z,11.00
2023-03-22T09:40:29.404Z,11.04
2023-03-22T09:42:59.343Z,11.10
2023-03-22T09:45:38.416Z,11.17
2023-03-22T09:48:15.769Z,11.26
2023-03-22T09:50:47.439Z,11.29
2023-03-22T09:53:16.691Z,11.30
2023-03-22T09:56:00.952Z,11.30
2023-03-22T09:58:40.699Z,11.33
2023-03-22T10:01:21.155Z,11.37
2023-03-22T10:04:26.680Z,11.39
2023-03-22T10:07:11.030Z,11.45
2023-03-22T10:10:06.719Z,11.57
2023-03-22T10:12:47.598Z,11.64
2023-03-22T10:15:19.850Z,11.67
2023-03-22T10:17:54.233Z,11.71
2023-03-22T10:20:37.648Z,11.74
2023-03-22T10:23:09.291Z,11.80
2023-03-22T10:25:40.017Z,11.85
2023-03-22T10:28:34.986Z,11.87
2023-03-22T10:31:05.667Z,11.89
2023-03-22T10:33:38.069Z,11.92
2023-03-22T10:36:11.270Z,11.96
2023-03-22T10:38:46.516Z,11.99
2023-03-22T10:41:16.813Z,12.04
2023-03-22T10:43:45.784Z,12.10
2023-03-22T10:46:19.138Z,12.18
2023-03-22T10:48:49.728Z,12.26
2023-03-22T10:51:25.740Z,12.32
2023-03-22T10:53:58.248Z,12.39
2023-03-22T10:56:26.843Z,12.43
2023-03-22T10:58:57.402Z,12.47
2023-03-22T11:01:26.978Z,12.50
2023-03-22T11:04:22.051Z,12.52
2023-03-22T11:06:56.080Z,12.52
2023-03-22T11:09:24.874Z,12.53
2023-03-22T11:11:54.526Z,12.51
2023-03-22T11:14:43.355Z,12.48
2023-03-22T11:17:14.277Z,12.50
2023-03-22T11:19:55.442Z,12.50
2023-03-22T11:22:28.827Z,12.52
2023-03-22T11:24:57.139Z,12.52
2023-03-22T11:27:30.042Z,12.50
2023-03-22T11:29:59.820Z,12.47
2023-03-22T11:32:41.015Z,12.43
2023-03-22T11:35:23.468Z,12.42
2023-03-22T11:37:52.820Z,12.32
2023-03-22T11:40:28.239Z,12.26
2023-03-22T11:43:15.866Z,12.28
2023-03-22T11:45:44.433Z,12.32
2023-03-22T11:48:18.188Z,12.36
2023-03-22T11:50:46.574Z,12.42
2023-03-22T11:53:19.652Z,12.51
2023-03-22T11:55:48.875Z,12.53
2023-03-22T11:58:39.845Z,12.54
2023-03-22T12:01:11.205Z,12.58
2023-03-22T12:03:40.677Z,12.64
2023-03-22T12:06:28.533Z,12.66
2023-03-22T12:09:04.332Z,12.65
2023-03-22T12:11:43.927Z,12.66
2023-03-22T13:55:48.331Z,13.19
2023-03-22T13:58:36.439Z,13.18
2023-03-22T14:01:36.466Z,13.17
2023-03-22T14:04:10.860Z,13.17
2023-03-22T14:06:47.586Z,13.21
2023-03-22T14:09:36.483Z,13.26
2023-03-22T14:12:06.343Z,13.32
2023-03-22T14:14:36.984Z,13.35
2023-03-22T14:17:12.183Z,13.40
2023-03-22T14:19:40.681Z,13.45
